Time;durP1;ratioP1;P1;durP2;ratioP2;P2;SDS_P1;SDS_P2;PMS_P1;PMS_P2;Temp;Humidity;BMP_temperature;BMP_pressure;BME280_temperature;BME280_humidity;BME280_pressure;Samples;Min_cycle;Max_cycle;Signal;HPM_P1;HPM_P2
2022/09/16 00:00:19;;;;;;;17.50;8.13;;;14.00;99.90;;;;;;5052287;28;20868;-65
2022/09/16 00:02:45;;;;;;;7.40;6.60;;;14.10;99.90;;;;;;5051875;28;20525;-65
2022/09/16 00:05:12;;;;;;;8.30;5.90;;;14.20;99.90;;;;;;5051976;28;20816;-64
2022/09/16 00:07:39;;;;;;;6.80;6.07;;;14.20;99.90;;;;;;5052137;28;20455;-64
2022/09/16 00:10:07;;;;;;;7.47;6.77;;;14.30;99.90;;;;;;5052088;28;20444;-66
2022/09/16 00:12:34;;;;;;;7.50;6.30;;;14.40;99.90;;;;;;5051794;28;20471;-65
2022/09/16 00:15:00;;;;;;;6.70;6.10;;;14.40;99.90;;;;;;5051678;28;20450;-65
2022/09/16 00:17:29;;;;;;;7.97;7.17;;;14.40;99.90;;;;;;5051702;28;20646;-64
2022/09/16 00:19:56;;;;;;;7.30;5.70;;;14.40;99.90;;;;;;5051683;28;21089;-65
2022/09/16 00:22:23;;;;;;;8.53;7.00;;;14.50;99.90;;;;;;5051749;28;20555;-63
2022/09/16 00:24:50;;;;;;;6.77;6.17;;;14.50;99.90;;;;;;5051712;28;20459;-65
2022/09/16 00:27:17;;;;;;;11.43;7.33;;;14.60;99.90;;;;;;5051673;28;20454;-66
2022/09/16 00:29:44;;;;;;;9.03;6.70;;;14.50;99.90;;;;;;5051743;28;20443;-66
2022/09/16 00:32:10;;;;;;;7.10;6.20;;;14.60;99.90;;;;;;5051067;28;20478;-65
2022/09/16 00:34:39;;;;;;;7.00;6.30;;;14.60;99.90;;;;;;5051547;28;20447;-66
2022/09/16 00:37:07;;;;;;;8.80;6.57;;;14.50;99.90;;;;;;5051245;28;20448;-65
2022/09/16 00:39:34;;;;;;;9.37;6.47;;;14.50;99.90;;;;;;5051264;28;20486;-65
2022/09/16 00:42:01;;;;;;;8.40;7.13;;;14.50;99.90;;;;;;5048535;28;20470;-65
2022/09/16 00:44:58;;;;;;;8.37;7.10;;;14.40;99.90;;;;;;5051717;28;20479;-63
2022/09/16 00:47:31;;;;;;;7.30;6.60;;;14.40;99.90;;;;;;5049190;28;20455;-65
2022/09/16 00:50:04;;;;;;;7.70;6.90;;;14.40;99.90;;;;;;5069794;28;20975;-65
2022/09/16 00:52:32;;;;;;;7.07;6.37;;;14.30;99.90;;;;;;5071376;28;20467;-65
2022/09/16 00:55:02;;;;;;;7.63;6.47;;;14.40;99.90;;;;;;5071038;28;20808;-65
2022/09/16 00:57:30;;;;;;;6.53;5.90;;;14.50;99.90;;;;;;5071300;28;20454;-65
2022/09/16 00:59:57;;;;;;;7.50;6.40;;;14.50;99.90;;;;;;5071026;28;20491;-65
2022/09/16 01:02:25;;;;;;;8.53;7.23;;;14.50;99.90;;;;;;5070582;28;20473;-66
2022/09/16 01:04:56;;;;;;;7.30;6.60;;;14.50;99.90;;;;;;5071380;28;20534;-65
2022/09/16 01:07:30;;;;;;;7.07;6.47;;;14.50;99.90;;;;;;5071092;28;20478;-66
2022/09/16 01:09:57;;;;;;;7.37;6.60;;;14.50;99.90;;;;;;5070998;28;20442;-65
2022/09/16 01:12:24;;;;;;;8.90;6.40;;;14.50;99.90;;;;;;5070507;28;20471;-65
2022/09/16 01:14:54;;;;;;;9.40;6.53;;;14.50;99.90;;;;;;5070791;28;20462;-66
2022/09/16 01:17:30;;;;;;;7.23;6.53;;;14.50;99.90;;;;;;5070779;28;20800;-65
2022/09/16 01:20:31;;;;;;;6.97;6.37;;;14.50;99.90;;;;;;5070502;28;20510;-66
2022/09/16 01:23:28;;;;;;;8.10;6.77;;;14.60;99.90;;;;;;5050264;28;20512;-65
2022/09/16 01:26:11;;;;;;;10.47;7.97;;;14.60;99.90;;;;;;5070535;28;20462;-66
2022/09/16 01:29:01;;;;;;;8.00;7.17;;;14.50;99.90;;;;;;5070183;28;20496;-65
2022/09/16 01:31:35;;;;;;;8.03;7.30;;;14.50;99.90;;;;;;5070673;28;21026;-65
2022/09/16 01:34:16;;;;;;;14.40;7.53;;;14.50;99.90;;;;;;5070516;28;20447;-65
2022/09/16 01:36:49;;;;;;;8.07;6.83;;;14.50;99.90;;;;;;5070511;28;20450;-64
2022/09/16 01:39:28;;;;;;;8.10;7.33;;;14.50;99.90;;;;;;5070478;28;20483;-66
2022/09/16 01:42:13;;;;;;;7.37;6.63;;;14.40;99.90;;;;;;5069866;28;20976;-65
2022/09/16 01:44:46;;;;;;;8.47;7.67;;;14.50;99.90;;;;;;5070311;28;20842;-65
2022/09/16 01:47:22;;;;;;;9.03;7.27;;;14.40;99.90;;;;;;5070634;28;20443;-65
2022/09/16 01:49:58;;;;;;;7.67;6.97;;;14.40;99.90;;;;;;5070590;28;20442;-66
2022/09/16 01:52:34;;;;;;;10.30;6.70;;;14.30;99.90;;;;;;5069977;28;20466;-66
2022/09/16 01:55:04;;;;;;;7.27;6.57;;;14.20;99.90;;;;;;5070437;28;20450;-65
2022/09/16 01:57:37;;;;;;;8.17;6.80;;;14.20;99.90;;;;;;5070078;28;20525;-65
2022/09/16 02:00:07;;;;;;;6.63;6.00;;;14.10;99.90;;;;;;5070076;28;20486;-66
2022/09/16 02:02:40;;;;;;;7.47;6.27;;;14.00;99.90;;;;;;5069614;28;20473;-66
2022/09/16 02:05:11;;;;;;;8.20;6.23;;;13.90;99.90;;;;;;5069978;28;20455;-65
2022/09/16 02:07:43;;;;;;;6.37;5.77;;;13.90;99.90;;;;;;5069941;28;20524;-66
2022/09/16 02:10:17;;;;;;;7.83;6.20;;;13.80;99.90;;;;;;5070167;28;20431;-65
2022/09/16 02:12:46;;;;;;;7.43;5.53;;;13.80;99.90;;;;;;5069521;28;20477;-67
2022/09/16 02:15:21;;;;;;;6.77;6.00;;;13.80;99.90;;;;;;5069803;28;20447;-66
2022/09/16 02:17:52;;;;;;;8.93;7.77;;;13.80;99.90;;;;;;5069797;28;20442;-67
2022/09/16 02:20:23;;;;;;;7.43;6.30;;;13.80;99.90;;;;;;5069514;28;20482;-66
2022/09/16 02:22:55;;;;;;;6.63;6.00;;;13.70;99.90;;;;;;5069327;28;20527;-65
2022/09/16 02:25:23;;;;;;;7.77;6.97;;;13.60;99.90;;;;;;5069569;28;20463;-66
2022/09/16 02:27:52;;;;;;;7.23;6.17;;;13.50;99.90;;;;;;5069662;28;20822;-66
2022/09/16 02:30:22;;;;;;;7.47;6.77;;;13.50;99.90;;;;;;5069651;28;20443;-67
2022/09/16 02:32:54;;;;;;;10.07;6.97;;;13.50;99.90;;;;;;5069625;28;20486;-66
2022/09/16 02:35:22;;;;;;;8.90;6.60;;;13.40;99.90;;;;;;5069607;28;20469;-67
2022/09/16 02:37:51;;;;;;;6.77;6.07;;;13.40;99.90;;;;;;5069676;28;20823;-66
2022/09/16 02:40:24;;;;;;;7.43;6.73;;;13.40;99.90;;;;;;5073536;28;20521;-66
2022/09/16 02:42:52;;;;;;;9.90;5.90;;;13.40;99.90;;;;;;5073329;28;20467;-65
2022/09/16 02:45:20;;;;;;;7.00;5.57;;;13.20;99.90;;;;;;5073597;28;20449;-65
2022/09/16 02:47:58;;;;;;;6.70;6.10;;;13.20;99.90;;;;;;5073484;28;20929;-66
2022/09/16 02:50:29;;;;;;;10.13;7.77;;;13.30;99.90;;;;;;5073758;28;20454;-66
2022/09/16 02:53:00;;;;;;;6.43;5.80;;;13.30;99.90;;;;;;5073211;28;20785;-66
2022/09/16 02:55:37;;;;;;;6.33;5.83;;;13.30;99.90;;;;;;5073282;28;20451;-66
2022/09/16 02:58:05;;;;;;;6.53;5.80;;;13.20;99.90;;;;;;5073301;28;20438;-67
2022/09/16 03:00:37;;;;;;;5.93;5.43;;;13.20;99.90;;;;;;5073218;28;21225;-66
2022/09/16 03:03:05;;;;;;;6.80;5.60;;;13.10;99.90;;;;;;5073090;28;20467;-67
2022/09/16 03:05:31;;;;;;;8.50;7.70;;;13.00;99.90;;;;;;5073491;28;20933;-66
2022/09/16 03:08:01;;;;;;;7.07;6.37;;;13.00;99.90;;;;;;5073155;28;20457;-66
2022/09/16 03:10:35;;;;;;;10.37;6.70;;;12.90;99.90;;;;;;5072947;28;20443;-66
2022/09/16 03:13:08;;;;;;;9.10;6.13;;;12.80;99.90;;;;;;5073100;28;20463;-67
2022/09/16 03:15:51;;;;;;;5.70;5.20;;;12.70;99.90;;;;;;5073186;28;20451;-66
2022/09/16 03:18:38;;;;;;;9.43;5.57;;;12.70;99.90;;;;;;5073152;28;20443;-65
2022/09/16 03:21:13;;;;;;;8.93;5.80;;;12.70;99.90;;;;;;5073038;28;20466;-65
2022/09/16 03:23:49;;;;;;;8.37;6.43;;;12.90;99.90;;;;;;5072990;28;21113;-66
2022/09/16 03:26:24;;;;;;;7.33;5.40;;;12.90;99.90;;;;;;5073257;28;20787;-66
2022/09/16 03:29:03;;;;;;;6.80;5.83;;;13.00;99.90;;;;;;5073148;28;20446;-66
2022/09/16 03:31:35;;;;;;;8.83;6.10;;;13.00;99.90;;;;;;5072733;28;20854;-66
2022/09/16 03:34:09;;;;;;;6.00;5.40;;;13.00;99.90;;;;;;5072745;28;20457;-66
2022/09/16 03:36:41;;;;;;;5.63;5.10;;;13.10;99.90;;;;;;5072565;28;20446;-65
2022/09/16 03:39:10;;;;;;;7.43;5.07;;;13.10;99.90;;;;;;5072679;28;20451;-66
2022/09/16 03:41:37;;;;;;;5.83;4.67;;;13.10;99.90;;;;;;5072295;28;20471;-67
2022/09/16 03:44:04;;;;;;;6.83;5.33;;;13.30;99.90;;;;;;5072222;28;20442;-66
2022/09/16 03:46:32;;;;;;;6.10;4.40;;;13.30;99.90;;;;;;5072334;28;20743;-66
2022/09/16 03:48:59;;;;;;;6.10;5.50;;;13.50;99.90;;;;;;5072511;28;20443;-64
2022/09/16 03:51:27;;;;;;;8.80;5.87;;;13.50;99.90;;;;;;5071605;28;20455;-67
2022/09/16 03:53:54;;;;;;;5.43;5.00;;;13.50;99.90;;;;;;5072254;28;20443;-66
2022/09/16 03:56:23;;;;;;;6.63;5.43;;;13.50;99.90;;;;;;5072131;28;20450;-66
2022/09/16 03:58:50;;;;;;;6.17;4.93;;;13.60;99.90;;;;;;5072542;28;20470;-66
2022/09/16 04:01:17;;;;;;;8.13;4.90;;;13.60;99.90;;;;;;5072031;28;20895;-66
2022/09/16 04:03:44;;;;;;;6.63;5.37;;;13.60;99.90;;;;;;5071897;28;20439;-67
2022/09/16 04:06:11;;;;;;;6.20;5.33;;;13.60;99.90;;;;;;5072097;28;20797;-67
2022/09/16 04:08:39;;;;;;;8.33;5.67;;;13.70;99.90;;;;;;5071993;28;20497;-67
2022/09/16 04:11:06;;;;;;;7.13;5.83;;;13.70;99.90;;;;;;5071853;28;20505;-66
2022/09/16 04:13:34;;;;;;;10.30;6.47;;;13.60;99.90;;;;;;5071856;28;20542;-67
2022/09/16 04:16:02;;;;;;;7.23;5.23;;;13.60;99.90;;;;;;5072027;28;20725;-66
2022/09/16 04:18:30;;;;;;;5.40;4.90;;;13.60;99.90;;;;;;5071864;28;20439;-68
2022/09/16 04:20:58;;;;;;;9.37;6.03;;;13.50;99.90;;;;;;5071697;28;20479;-66
2022/09/16 04:23:25;;;;;;;5.37;4.70;;;13.60;99.90;;;;;;5071248;28;20467;-65
2022/09/16 04:25:57;;;;;;;7.13;5.60;;;13.70;99.90;;;;;;5072055;28;20455;-67
2022/09/16 04:28:23;;;;;;;6.83;5.47;;;13.70;99.90;;;;;;5071618;28;20443;-67
2022/09/16 04:30:50;;;;;;;7.07;6.10;;;13.70;99.90;;;;;;5071846;28;20443;-67
2022/09/16 04:33:18;;;;;;;6.70;6.10;;;13.70;99.90;;;;;;5071381;28;20746;-66
2022/09/16 04:35:44;;;;;;;6.90;6.20;;;13.70;99.90;;;;;;5071427;28;20828;-67
2022/09/16 04:38:11;;;;;;;6.70;5.90;;;13.70;99.90;;;;;;5071194;28;20447;-66
2022/09/16 04:40:38;;;;;;;5.40;4.90;;;13.60;99.90;;;;;;5071533;28;20478;-67
2022/09/16 04:43:07;;;;;;;5.47;4.70;;;13.60;99.90;;;;;;5071130;28;20471;-64
2022/09/16 04:45:33;;;;;;;5.47;4.93;;;13.60;99.90;;;;;;5048051;28;20461;-67
2022/09/16 04:48:00;;;;;;;5.50;4.43;;;13.70;99.90;;;;;;5051153;28;20448;-67
2022/09/16 04:50:27;;;;;;;6.50;5.57;;;13.70;99.90;;;;;;5051117;28;20804;-67
2022/09/16 04:52:54;;;;;;;8.80;6.37;;;13.70;99.90;;;;;;5048210;28;20479;-68
2022/09/16 04:55:22;;;;;;;7.83;6.70;;;13.80;99.90;;;;;;5041821;28;20448;-68
2022/09/16 04:57:49;;;;;;;7.43;5.87;;;13.80;99.90;;;;;;5045865;28;20447;-68
2022/09/16 05:00:17;;;;;;;10.03;6.40;;;13.70;99.90;;;;;;5050767;28;20483;-67
2022/09/16 05:02:45;;;;;;;7.27;5.20;;;13.70;99.90;;;;;;5045128;28;20476;-67
2022/09/16 05:05:11;;;;;;;6.90;5.60;;;13.70;99.90;;;;;;5043772;28;20456;-66
2022/09/16 05:07:38;;;;;;;10.33;5.90;;;13.70;99.90;;;;;;5039051;28;20448;-65
2022/09/16 05:10:06;;;;;;;6.33;5.73;;;13.80;99.90;;;;;;5036045;28;20981;-69
2022/09/16 05:12:33;;;;;;;6.23;5.30;;;13.70;99.90;;;;;;5031826;28;21000;-65
2022/09/16 05:14:59;;;;;;;6.63;5.30;;;13.80;99.90;;;;;;5040031;28;20449;-67
2022/09/16 05:17:29;;;;;;;7.90;7.13;;;13.80;99.90;;;;;;5045225;28;20452;-67
2022/09/16 05:19:56;;;;;;;12.87;6.20;;;13.80;99.90;;;;;;5050834;28;20451;-65
2022/09/16 05:22:23;;;;;;;7.40;6.60;;;13.60;99.90;;;;;;5049937;28;20475;-66
2022/09/16 05:24:50;;;;;;;7.57;6.77;;;13.70;99.90;;;;;;5049942;28;20451;-67
2022/09/16 05:27:17;;;;;;;7.33;6.40;;;13.60;99.90;;;;;;5045986;28;20452;-66
2022/09/16 05:29:44;;;;;;;9.17;7.60;;;13.70;99.90;;;;;;5050185;28;20444;-66
2022/09/16 05:32:10;;;;;;;7.13;6.40;;;13.70;99.90;;;;;;5049984;28;20464;-65
2022/09/16 05:34:38;;;;;;;7.97;7.13;;;13.80;99.90;;;;;;5050627;28;20824;-65
2022/09/16 05:37:05;;;;;;;8.93;6.80;;;13.80;99.90;;;;;;5050433;28;20502;-66
2022/09/16 05:39:32;;;;;;;8.57;7.70;;;13.80;99.90;;;;;;5050260;28;20447;-66
2022/09/16 05:41:59;;;;;;;7.90;6.80;;;13.70;99.90;;;;;;5049836;28;20874;-65
2022/09/16 05:44:27;;;;;;;8.13;7.33;;;13.70;99.90;;;;;;5050146;28;20448;-66
2022/09/16 05:46:55;;;;;;;8.70;6.70;;;13.70;99.90;;;;;;5049964;28;20448;-66
2022/09/16 05:49:22;;;;;;;8.60;7.80;;;13.70;99.90;;;;;;5050192;28;20439;-66
2022/09/16 05:51:51;;;;;;;8.40;7.30;;;13.70;99.90;;;;;;5049376;28;21240;-68
2022/09/16 05:54:18;;;;;;;10.67;7.70;;;13.70;99.90;;;;;;5048853;28;20827;-66
2022/09/16 05:56:46;;;;;;;7.50;6.80;;;13.60;99.90;;;;;;5048240;28;20448;-68
2022/09/16 05:59:13;;;;;;;8.20;6.50;;;13.60;99.90;;;;;;5048853;28;20456;-67
2022/09/16 06:01:40;;;;;;;7.80;6.77;;;13.70;99.90;;;;;;5049681;28;20561;-65
2022/09/16 06:04:09;;;;;;;7.50;6.80;;;13.60;99.90;;;;;;5050072;28;20448;-65
2022/09/16 06:06:38;;;;;;;8.60;6.87;;;13.60;99.90;;;;;;5049948;28;20448;-66
2022/09/16 06:09:08;;;;;;;9.33;7.90;;;13.70;99.90;;;;;;5050025;28;20443;-65
2022/09/16 06:11:37;;;;;;;11.13;7.77;;;13.60;99.90;;;;;;5049686;28;20829;-66
2022/09/16 06:14:05;;;;;;;10.33;7.70;;;13.70;99.90;;;;;;5049128;28;20938;-66
2022/09/16 06:16:32;;;;;;;8.67;6.60;;;13.70;99.90;;;;;;5049892;28;20456;-65
2022/09/16 06:19:00;;;;;;;8.23;7.30;;;13.60;99.90;;;;;;5049835;28;20448;-66
2022/09/16 06:21:29;;;;;;;8.60;6.30;;;13.50;99.90;;;;;;5049464;28;20487;-67
2022/09/16 06:23:56;;;;;;;8.07;6.33;;;13.40;99.90;;;;;;5049569;28;21012;-66
2022/09/16 06:26:26;;;;;;;6.67;6.10;;;13.40;99.90;;;;;;5049581;28;20440;-66
2022/09/16 06:28:54;;;;;;;11.40;6.80;;;13.50;99.90;;;;;;5049991;28;20486;-65
2022/09/16 06:31:23;;;;;;;9.83;5.63;;;13.40;99.90;;;;;;5049538;28;20436;-67
2022/09/16 06:33:50;;;;;;;7.13;6.47;;;13.40;99.90;;;;;;5049249;28;21013;-65
2022/09/16 06:36:19;;;;;;;7.90;6.87;;;13.40;99.90;;;;;;5049830;28;20946;-65
2022/09/16 06:38:46;;;;;;;8.47;6.80;;;13.50;99.90;;;;;;5049354;28;20443;-66
2022/09/16 06:41:15;;;;;;;10.00;6.90;;;13.50;99.90;;;;;;5049350;28;20486;-65
2022/09/16 06:43:43;;;;;;;7.43;6.50;;;13.50;99.90;;;;;;5049455;28;20440;-66
2022/09/16 06:46:14;;;;;;;11.90;7.73;;;13.40;99.90;;;;;;5049359;28;20856;-66
2022/09/16 06:48:42;;;;;;;8.00;6.80;;;13.30;99.90;;;;;;5049535;28;20456;-65
2022/09/16 06:51:11;;;;;;;7.93;6.67;;;13.30;99.90;;;;;;5049318;28;20440;-65
2022/09/16 06:53:38;;;;;;;8.80;6.70;;;13.30;99.90;;;;;;5049242;28;20820;-66
2022/09/16 06:56:07;;;;;;;6.73;5.50;;;13.20;99.90;;;;;;5049495;28;20467;-65
2022/09/16 06:58:35;;;;;;;9.53;6.03;;;13.10;99.90;;;;;;5049467;28;20455;-65
2022/09/16 07:01:06;;;;;;;7.70;5.40;;;13.00;99.90;;;;;;5049288;28;20479;-66
2022/09/16 07:03:33;;;;;;;8.30;5.23;;;13.00;99.90;;;;;;5048974;28;20468;-66
2022/09/16 07:06:01;;;;;;;6.17;5.30;;;12.90;99.90;;;;;;5049073;28;20439;-65
2022/09/16 07:08:29;;;;;;;6.90;4.53;;;12.70;99.90;;;;;;5049547;28;20460;-67
2022/09/16 07:10:57;;;;;;;7.33;5.40;;;12.70;99.90;;;;;;5049666;28;20810;-65
2022/09/16 07:13:24;;;;;;;6.50;5.40;;;12.70;99.90;;;;;;5049259;28;20463;-65
2022/09/16 07:15:50;;;;;;;9.30;5.50;;;12.70;99.90;;;;;;5049262;28;20444;-66
2022/09/16 07:18:19;;;;;;;8.10;6.90;;;12.60;99.90;;;;;;5049167;28;20452;-66
2022/09/16 07:20:46;;;;;;;5.23;4.73;;;12.60;99.90;;;;;;5049325;28;20857;-65
2022/09/16 07:23:13;;;;;;;5.90;5.30;;;12.60;99.90;;;;;;5048866;28;20468;-66
2022/09/16 07:25:39;;;;;;;6.73;6.03;;;12.50;99.90;;;;;;5050238;28;20456;-66
2022/09/16 07:28:06;;;;;;;6.53;5.50;;;12.60;99.90;;;;;;5052906;28;20920;-66
2022/09/16 07:30:33;;;;;;;7.47;6.77;;;12.70;99.90;;;;;;5053076;28;20454;-66
2022/09/16 07:33:00;;;;;;;7.50;6.73;;;13.10;99.90;;;;;;5052188;28;20473;-67
2022/09/16 07:35:28;;;;;;;8.20;6.77;;;13.40;99.90;;;;;;5052882;28;20455;-65
2022/09/16 07:37:55;;;;;;;7.50;6.80;;;13.40;99.90;;;;;;5052563;28;20453;-65
2022/09/16 07:40:21;;;;;;;9.80;6.47;;;13.30;99.90;;;;;;5052682;28;20800;-65
2022/09/16 07:42:48;;;;;;;9.10;7.03;;;13.40;99.90;;;;;;5052166;28;20483;-66
2022/09/16 07:45:15;;;;;;;9.77;7.50;;;13.40;99.90;;;;;;5052504;28;20452;-65
2022/09/16 07:47:42;;;;;;;8.10;6.33;;;13.40;99.90;;;;;;5052391;28;20832;-66
2022/09/16 07:50:10;;;;;;;7.67;6.97;;;13.50;99.90;;;;;;5052553;28;20439;-65
2022/09/16 07:52:38;;;;;;;8.87;6.43;;;13.60;99.90;;;;;;5052179;28;20517;-66
2022/09/16 07:55:05;;;;;;;8.07;6.43;;;13.70;99.90;;;;;;5052326;28;20455;-66
2022/09/16 07:57:32;;;;;;;10.77;6.77;;;13.80;99.90;;;;;;5052365;28;20949;-66
2022/09/16 07:59:59;;;;;;;8.73;6.20;;;13.70;99.90;;;;;;5052151;28;20444;-66
2022/09/16 08:02:26;;;;;;;11.65;8.45;;;13.70;99.90;;;;;;5051487;28;20456;-66
2022/09/16 08:04:53;;;;;;;9.53;8.37;;;13.80;99.90;;;;;;5052306;28;20227;-67
2022/09/16 08:07:19;;;;;;;8.87;7.50;;;14.00;99.90;;;;;;5052491;28;20451;-66
2022/09/16 08:09:48;;;;;;;7.53;6.73;;;14.00;99.90;;;;;;5052141;28;20444;-65
2022/09/16 08:12:14;;;;;;;7.63;6.93;;;13.90;99.90;;;;;;5051657;28;20839;-65
2022/09/16 08:14:41;;;;;;;9.17;7.17;;;14.00;99.90;;;;;;5051801;28;20838;-66
2022/09/16 08:17:08;;;;;;;8.83;6.50;;;14.10;99.90;;;;;;5052036;28;20475;-66
2022/09/16 08:19:37;;;;;;;9.43;6.50;;;14.20;99.90;;;;;;5052108;28;20444;-66
2022/09/16 08:22:04;;;;;;;7.30;6.60;;;14.40;99.90;;;;;;5051424;28;20480;-66
2022/09/16 08:24:31;;;;;;;6.13;5.53;;;14.30;99.90;;;;;;5051611;28;20470;-66
2022/09/16 08:26:59;;;;;;;6.87;6.17;;;14.20;99.90;;;;;;5051536;28;20849;-66
2022/09/16 08:29:26;;;;;;;7.27;5.90;;;14.20;99.90;;;;;;5052105;28;20459;-66
2022/09/16 08:31:53;;;;;;;9.00;6.13;;;14.20;99.90;;;;;;5051615;28;20478;-65
2022/09/16 08:34:19;;;;;;;10.17;7.10;;;14.10;99.90;;;;;;5051466;28;20459;-65
2022/09/16 08:36:46;;;;;;;8.23;6.97;;;14.00;99.90;;;;;;5051425;28;20543;-65
2022/09/16 08:39:13;;;;;;;9.30;7.90;;;14.10;99.90;;;;;;5051448;28;20448;-66
2022/09/16 08:42:25;;;;;;;7.67;6.97;;;14.20;99.90;;;;;;5051148;28;20582;-66
2022/09/16 08:44:59;;;;;;;9.27;7.33;;;14.30;99.90;;;;;;5023198;28;20930;-65
2022/09/16 08:47:40;;;;;;;9.57;7.50;;;14.40;99.90;;;;;;5051507;28;20815;-65
2022/09/16 08:50:14;;;;;;;11.07;7.60;;;14.60;99.90;;;;;;5051265;28;20933;-66
2022/09/16 08:52:44;;;;;;;7.07;6.37;;;14.60;99.90;;;;;;5051224;28;20487;-64
2022/09/16 08:55:15;;;;;;;8.30;7.50;;;14.80;99.90;;;;;;5051473;28;20452;-67
2022/09/16 08:57:51;;;;;;;7.50;6.80;;;14.90;99.90;;;;;;5051508;28;20451;-67
2022/09/16 09:00:19;;;;;;;12.93;6.80;;;15.00;99.90;;;;;;5051266;28;20452;-65
2022/09/16 09:02:52;;;;;;;7.33;6.40;;;15.10;99.90;;;;;;5051099;28;20487;-65
2022/09/16 09:05:27;;;;;;;9.37;6.67;;;15.30;99.90;;;;;;5051477;28;20798;-67
2022/09/16 09:08:11;;;;;;;8.40;6.40;;;15.40;99.90;;;;;;5051265;28;20450;-69
2022/09/16 09:10:45;;;;;;;9.30;6.33;;;15.30;99.90;;;;;;5050978;28;20444;-66
2022/09/16 09:13:29;;;;;;;7.93;7.13;;;15.10;99.90;;;;;;5050927;28;20468;-67
2022/09/16 09:16:12;;;;;;;7.60;6.70;;;15.20;99.90;;;;;;5050897;28;20483;-67
2022/09/16 09:18:47;;;;;;;7.60;6.73;;;15.30;99.90;;;;;;5050882;28;20949;-66
2022/09/16 09:21:24;;;;;;;11.03;7.17;;;15.40;99.90;;;;;;5050404;28;20942;-67
2022/09/16 09:24:07;;;;;;;24.33;7.33;;;15.50;99.90;;;;;;5050245;28;20451;-66
2022/09/16 09:26:42;;;;;;;8.33;7.40;;;15.50;99.90;;;;;;5050587;28;20938;-68
2022/09/16 09:29:29;;;;;;;10.07;6.63;;;15.30;99.90;;;;;;5050542;28;20448;-67
2022/09/16 09:32:08;;;;;;;7.13;6.40;;;15.00;99.90;;;;;;5050019;28;20543;-67
2022/09/16 09:34:51;;;;;;;8.00;5.60;;;15.00;99.90;;;;;;5050663;28;20455;-67
2022/09/16 09:37:36;;;;;;;6.40;5.80;;;14.90;99.90;;;;;;5050595;28;20451;-66
2022/09/16 09:40:11;;;;;;;6.47;5.90;;;14.80;99.90;;;;;;5050272;28;20444;-66
2022/09/16 09:42:43;;;;;;;7.17;5.73;;;14.90;99.90;;;;;;5050036;28;20491;-68
2022/09/16 09:45:19;;;;;;;9.67;6.20;;;14.90;99.90;;;;;;5050464;28;20502;-66
2022/09/16 09:47:49;;;;;;;8.43;5.67;;;15.00;99.90;;;;;;5050033;28;20458;-67
2022/09/16 09:50:22;;;;;;;6.30;5.70;;;14.90;99.90;;;;;;5050007;28;20452;-67
2022/09/16 09:52:54;;;;;;;6.03;5.53;;;15.00;99.90;;;;;;5050022;28;20829;-67
2022/09/16 09:55:23;;;;;;;5.63;5.10;;;15.10;99.90;;;;;;5050240;28;20445;-69
2022/09/16 09:58:23;;;;;;;7.20;4.77;;;15.50;99.90;;;;;;5050058;28;20444;-68
2022/09/16 10:00:54;;;;;;;5.73;5.00;;;15.70;99.90;;;;;;5047508;28;20451;-67
2022/09/16 10:03:21;;;;;;;6.23;5.60;;;15.70;99.90;;;;;;5047192;28;20537;-68
2022/09/16 10:05:49;;;;;;;6.17;5.00;;;15.80;99.90;;;;;;5050005;28;20455;-68
2022/09/16 10:08:23;;;;;;;6.23;5.43;;;15.80;99.90;;;;;;5046174;28;20820;-67
2022/09/16 10:10:52;;;;;;;7.40;6.30;;;15.60;99.90;;;;;;5050377;28;20988;-67
2022/09/16 10:13:20;;;;;;;9.47;6.27;;;15.30;99.90;;;;;;5048165;28;20470;-67
2022/09/16 10:15:48;;;;;;;6.17;5.60;;;15.00;99.90;;;;;;5049350;28;21208;-67
2022/09/16 10:18:28;;;;;;;8.60;5.67;;;14.90;99.90;;;;;;5049614;28;20444;-67
2022/09/16 10:21:00;;;;;;;7.90;6.40;;;14.70;99.90;;;;;;5049825;28;20539;-67
2022/09/16 10:23:27;;;;;;;6.70;5.43;;;14.60;99.90;;;;;;5047540;28;20492;-67
2022/09/16 10:26:16;;;;;;;7.77;5.63;;;14.60;99.90;;;;;;5048317;28;20463;-67
2022/09/16 10:28:57;;;;;;;6.30;5.70;;;14.50;99.90;;;;;;5029984;28;20449;-66
2022/09/16 10:31:26;;;;;;;6.77;5.57;;;14.40;99.90;;;;;;5030309;28;20444;-67
2022/09/16 10:33:54;;;;;;;6.00;5.50;;;14.40;99.90;;;;;;5048479;28;21327;-66
2022/09/16 10:36:25;;;;;;;4.80;4.40;;;14.40;99.90;;;;;;5045992;28;20452;-67
2022/09/16 10:38:54;;;;;;;6.03;5.43;;;14.40;99.90;;;;;;5045470;28;21004;-66
2022/09/16 10:41:26;;;;;;;4.70;4.30;;;14.40;99.90;;;;;;5046114;28;20450;-67
2022/09/16 10:43:56;;;;;;;7.57;4.63;;;14.40;99.90;;;;;;5054847;28;20444;-65
2022/09/16 10:46:23;;;;;;;6.77;4.13;;;14.50;99.90;;;;;;5049329;28;20456;-66
2022/09/16 10:48:53;;;;;;;6.30;4.40;;;14.50;99.90;;;;;;5049210;28;20446;-66
2022/09/16 10:51:26;;;;;;;5.07;4.60;;;14.50;99.90;;;;;;5049566;28;20832;-67
2022/09/16 10:53:54;;;;;;;5.50;4.43;;;14.60;99.90;;;;;;5049616;28;20836;-68
2022/09/16 10:56:23;;;;;;;6.43;4.70;;;14.70;99.90;;;;;;5049824;28;20463;-67
2022/09/16 10:58:50;;;;;;;5.03;4.53;;;14.80;99.90;;;;;;5049677;28;20443;-67
2022/09/16 11:01:31;;;;;;;4.10;3.70;;;14.80;99.90;;;;;;5051411;28;20534;-68
2022/09/16 11:04:36;;;;;;;8.43;5.17;;;14.80;99.90;;;;;;5053237;28;20990;-66
2022/09/16 11:07:13;;;;;;;5.30;4.43;;;14.80;99.90;;;;;;5051360;28;20452;-68
2022/09/16 11:09:48;;;;;;;5.43;3.77;;;14.90;99.90;;;;;;5052194;28;20451;-67
2022/09/16 11:12:40;;;;;;;4.50;4.20;;;14.90;99.90;;;;;;5052420;28;20989;-66
2022/09/16 11:15:17;;;;;;;5.97;4.57;;;14.90;99.90;;;;;;5053289;28;20488;-68
2022/09/16 11:17:57;;;;;;;4.50;4.10;;;14.80;99.90;;;;;;5053107;28;20466;-67
2022/09/16 11:20:36;;;;;;;7.37;4.23;;;14.80;99.90;;;;;;5053218;28;20435;-65
2022/09/16 11:23:14;;;;;;;6.70;4.63;;;14.60;99.90;;;;;;5052788;28;20715;-67
2022/09/16 11:25:50;;;;;;;5.73;4.70;;;14.60;99.90;;;;;;5052968;28;20456;-67
2022/09/16 11:28:38;;;;;;;4.63;4.20;;;14.60;99.90;;;;;;5052760;28;20460;-68
2022/09/16 11:31:12;;;;;;;4.53;3.80;;;14.50;99.90;;;;;;5052969;28;20451;-66
2022/09/16 11:33:49;;;;;;;5.47;4.57;;;14.60;99.90;;;;;;5052612;28;20826;-67
2022/09/16 11:36:37;;;;;;;6.60;4.70;;;14.60;99.90;;;;;;5052719;28;20449;-67
2022/09/16 11:39:20;;;;;;;5.03;4.37;;;14.70;99.90;;;;;;5052786;28;20443;-68
2022/09/16 11:41:55;;;;;;;7.20;3.67;;;14.80;99.90;;;;;;5052323;28;20472;-68
2022/09/16 11:44:44;;;;;;;10.17;4.43;;;14.90;99.90;;;;;;5051703;28;20451;-67
2022/09/16 11:47:31;;;;;;;6.47;4.00;;;15.00;99.90;;;;;;5049572;28;20452;-67
2022/09/16 11:50:20;;;;;;;4.97;4.47;;;15.10;99.90;;;;;;5047742;28;20451;-67
2022/09/16 11:53:01;;;;;;;6.03;3.90;;;15.30;99.90;;;;;;5050012;28;20562;-66
2022/09/16 11:55:39;;;;;;;3.93;3.63;;;15.20;99.90;;;;;;5051941;28;20455;-67
2022/09/16 11:58:20;;;;;;;5.60;3.33;;;15.10;99.90;;;;;;5052199;28;20471;-67
2022/09/16 12:00:47;;;;;;;2.97;2.63;;;15.10;99.90;;;;;;5052334;28;20452;-67
2022/09/16 12:03:23;;;;;;;6.47;3.60;;;15.00;99.90;;;;;;5051667;28;20506;-67
2022/09/16 12:05:55;;;;;;;3.33;2.60;;;15.30;99.90;;;;;;5051828;28;21021;-68
2022/09/16 12:08:26;;;;;;;4.23;2.43;;;15.50;99.90;;;;;;5051484;28;20547;-67
2022/09/16 12:10:58;;;;;;;5.23;2.90;;;15.90;99.90;;;;;;5052087;28;20440;-66
2022/09/16 12:13:29;;;;;;;4.03;2.40;;;16.30;99.90;;;;;;5051358;28;20468;-68
2022/09/16 12:16:01;;;;;;;2.60;2.17;;;16.40;99.90;;;;;;5051592;28;20452;-67
2022/09/16 12:18:32;;;;;;;3.40;2.20;;;16.60;99.90;;;;;;5051876;28;20459;-67
2022/09/16 12:21:07;;;;;;;6.67;2.40;;;16.80;99.90;;;;;;5051896;28;20493;-66
2022/09/16 12:23:40;;;;;;;4.10;2.23;;;17.00;99.90;;;;;;5051396;28;20479;-66
2022/09/16 12:26:12;;;;;;;6.47;2.60;;;17.00;99.90;;;;;;5051485;28;20451;-67
2022/09/16 12:28:45;;;;;;;3.73;2.47;;;17.10;99.90;;;;;;5048976;28;20448;-65
2022/09/16 12:31:15;;;;;;;2.40;2.20;;;18.10;99.90;;;;;;5049251;28;20448;-67
2022/09/16 12:33:46;;;;;;;3.07;2.17;;;19.70;99.90;;;;;;5033392;28;20468;-66
2022/09/16 12:36:18;;;;;;;2.87;1.90;;;20.10;99.90;;;;;;5043000;28;20489;-68
2022/09/16 12:38:45;;;;;;;4.20;2.40;;;20.50;99.90;;;;;;5049727;28;20440;-67
2022/09/16 12:41:42;;;;;;;5.77;2.60;;;20.10;99.90;;;;;;5050145;28;20503;-67
2022/09/16 12:44:50;;;;;;;2.10;1.60;;;19.70;99.90;;;;;;5031467;28;20484;-68
2022/09/16 12:47:30;;;;;;;2.17;1.97;;;20.40;99.90;;;;;;4969354;28;20490;-67
2022/09/16 12:50:28;;;;;;;4.97;2.30;;;21.30;99.90;;;;;;5046510;28;20454;-66
2022/09/16 12:53:49;;;;;;;5.23;1.93;;;21.50;99.90;;;;;;5051140;28;20467;-66
2022/09/16 12:56:32;;;;;;;2.47;2.27;;;22.40;99.90;;;;;;5051628;28;20455;-67
2022/09/16 12:59:33;;;;;;;3.50;1.57;;;22.30;99.90;;;;;;5051182;28;20448;-66
2022/09/16 13:02:04;;;;;;;2.00;1.80;;;20.70;99.90;;;;;;5031575;28;20472;-66
2022/09/16 13:04:37;;;;;;;3.27;1.83;;;20.10;99.90;;;;;;5049789;28;20436;-66
2022/09/16 13:07:06;;;;;;;2.20;2.00;;;19.30;99.90;;;;;;5048922;28;20459;-67
2022/09/16 13:09:37;;;;;;;4.30;2.10;;;18.90;99.90;;;;;;5050020;28;20448;-66